Time;durP1;ratioP1;P1;durP2;ratioP2;P2;SDS_P1;SDS_P2;PMS_P1;PMS_P2;Temp;Humidity;BMP_temperature;BMP_pressure;BME280_temperature;BME280_humidity;BME280_pressure;Samples;Min_cycle;Max_cycle;Signal;HPM_P1;HPM_P2
2022/03/30 00:01:55;;;;;;;16.65;6.90;;;4.50;99.90;;;;;;5002393;28;20041;-79
2022/03/30 00:04:21;;;;;;;11.80;5.45;;;4.50;99.90;;;;;;5010224;28;20030;-78
2022/03/30 00:06:47;;;;;;;11.80;5.65;;;4.50;99.90;;;;;;5002781;28;20025;-77
2022/03/30 00:09:13;;;;;;;12.45;5.50;;;4.50;99.90;;;;;;4986468;28;20433;-79
2022/03/30 00:11:38;;;;;;;13.43;6.18;;;4.40;99.90;;;;;;5003156;28;20057;-78
2022/03/30 00:14:04;;;;;;;11.80;5.35;;;4.50;99.90;;;;;;4986712;28;20029;-78
2022/03/30 00:16:30;;;;;;;10.30;5.20;;;4.50;99.90;;;;;;5002681;28;20421;-78
2022/03/30 00:18:55;;;;;;;14.10;6.10;;;4.50;99.90;;;;;;4981293;28;20583;-78
2022/03/30 00:21:21;;;;;;;12.68;5.85;;;4.50;99.90;;;;;;5002465;28;20980;-78
2022/03/30 00:23:47;;;;;;;10.07;4.65;;;4.50;99.90;;;;;;4980775;28;20033;-78
2022/03/30 00:26:13;;;;;;;14.63;6.03;;;4.50;99.90;;;;;;5003497;28;20386;-78
2022/03/30 00:28:38;;;;;;;14.13;7.03;;;4.50;99.90;;;;;;5003446;28;20025;-78
2022/03/30 00:31:04;;;;;;;13.77;6.75;;;4.40;99.90;;;;;;5019761;28;20030;-78
2022/03/30 00:33:30;;;;;;;12.13;6.00;;;4.30;99.90;;;;;;5001143;28;20210;-77
2022/03/30 00:35:55;;;;;;;10.32;4.95;;;4.20;99.90;;;;;;5002675;28;20064;-78
2022/03/30 00:38:21;;;;;;;10.73;5.45;;;4.30;99.90;;;;;;5017935;28;20849;-77
2022/03/30 00:40:48;;;;;;;14.80;5.90;;;4.30;99.90;;;;;;5002689;28;20037;-78
2022/03/30 00:43:14;;;;;;;14.30;6.35;;;4.30;99.90;;;;;;4997018;28;20037;-78
2022/03/30 00:45:40;;;;;;;13.45;7.82;;;4.30;99.90;;;;;;5003131;28;20485;-79
2022/03/30 00:48:06;;;;;;;14.52;5.60;;;4.30;99.90;;;;;;4981065;28;20061;-79
2022/03/30 00:50:32;;;;;;;11.90;5.28;;;4.20;99.90;;;;;;5002715;28;20508;-78
2022/03/30 00:52:58;;;;;;;11.23;5.65;;;4.30;99.90;;;;;;5020153;28;20061;-78
2022/03/30 00:55:24;;;;;;;12.07;4.97;;;4.30;99.90;;;;;;5020097;28;20440;-78
2022/03/30 00:57:52;;;;;;;11.15;5.75;;;4.20;99.90;;;;;;4999627;28;20056;-78
2022/03/30 01:00:19;;;;;;;10.88;5.68;;;4.20;99.90;;;;;;5019312;28;20033;-78
2022/03/30 01:02:46;;;;;;;16.08;6.55;;;4.10;99.90;;;;;;4979617;28;20045;-78
2022/03/30 01:05:13;;;;;;;12.13;5.65;;;4.10;99.90;;;;;;4985087;28;20029;-78
2022/03/30 01:07:38;;;;;;;13.27;6.30;;;4.10;99.90;;;;;;4996817;28;20068;-78
2022/03/30 01:10:05;;;;;;;12.43;6.13;;;4.10;99.90;;;;;;4996737;28;20160;-78
2022/03/30 01:12:34;;;;;;;12.57;6.30;;;4.10;99.90;;;;;;5002020;28;20041;-78
2022/03/30 01:15:01;;;;;;;12.48;6.78;;;4.00;99.90;;;;;;4997391;28;20478;-80
2022/03/30 01:17:26;;;;;;;10.25;5.30;;;4.10;99.90;;;;;;5001584;28;20107;-80
2022/03/30 01:19:52;;;;;;;14.10;6.53;;;4.00;99.90;;;;;;4997516;28;20029;-78
2022/03/30 01:22:18;;;;;;;12.10;5.35;;;4.00;99.90;;;;;;5008177;28;20049;-78
2022/03/30 01:24:44;;;;;;;12.88;6.30;;;4.00;99.90;;;;;;5001854;28;20056;-78
2022/03/30 01:27:10;;;;;;;14.07;6.40;;;4.00;99.90;;;;;;5019191;28;20036;-78
2022/03/30 01:32:26;;;;;;;18.80;8.65;;;3.90;99.90;;;;;;5019464;28;20075;-78
2022/03/30 01:34:57;;;;;;;16.55;7.35;;;3.80;99.90;;;;;;5001715;28;20043;-77
2022/03/30 01:37:24;;;;;;;12.15;5.88;;;3.80;99.90;;;;;;4979411;28;20030;-78
2022/03/30 01:39:50;;;;;;;15.32;7.15;;;3.80;99.90;;;;;;5019441;28;20029;-78
2022/03/30 01:42:16;;;;;;;13.93;6.00;;;3.80;99.90;;;;;;4978251;28;20037;-78
2022/03/30 01:44:42;;;;;;;12.38;6.22;;;3.70;99.90;;;;;;5000556;28;20761;-78
2022/03/30 01:47:10;;;;;;;12.35;6.35;;;3.70;99.90;;;;;;4980378;28;20037;-79
2022/03/30 01:49:36;;;;;;;16.58;5.93;;;3.60;99.90;;;;;;4994786;28;20030;-80
2022/03/30 01:52:03;;;;;;;12.20;5.88;;;3.60;99.90;;;;;;5017664;28;20083;-78
2022/03/30 01:54:33;;;;;;;15.35;6.03;;;3.50;99.90;;;;;;5002043;28;20032;-79
2022/03/30 01:56:59;;;;;;;9.50;4.95;;;3.50;99.90;;;;;;4984126;28;20048;-78
2022/03/30 01:59:25;;;;;;;11.73;5.15;;;3.50;99.90;;;;;;5007124;28;20375;-77
2022/03/30 02:01:52;;;;;;;10.00;4.30;;;3.40;99.90;;;;;;4995372;28;20037;-78
2022/03/30 02:04:17;;;;;;;11.55;5.43;;;3.30;99.90;;;;;;5016354;28;20037;-78
2022/03/30 02:06:43;;;;;;;10.65;4.82;;;3.20;99.90;;;;;;4995218;28;20059;-78
2022/03/30 02:09:12;;;;;;;8.25;3.67;;;3.20;99.90;;;;;;5000802;28;20459;-78
2022/03/30 02:11:38;;;;;;;11.23;3.65;;;3.20;99.90;;;;;;4977425;28;20021;-79
2022/03/30 02:14:05;;;;;;;12.57;4.15;;;3.20;99.90;;;;;;4994657;28;20466;-78
2022/03/30 02:16:31;;;;;;;9.07;4.15;;;3.20;99.90;;;;;;4994432;28;20067;-77
2022/03/30 02:18:56;;;;;;;15.57;6.57;;;3.20;99.90;;;;;;5001611;28;20546;-78
2022/03/30 02:21:24;;;;;;;14.18;7.07;;;3.20;99.90;;;;;;4977623;28;20504;-79
2022/03/30 02:23:50;;;;;;;13.65;6.78;;;3.10;99.90;;;;;;4995718;28;20030;-78
2022/03/30 02:26:16;;;;;;;11.50;5.32;;;3.10;99.90;;;;;;4978545;28;20033;-78
2022/03/30 02:28:51;;;;;;;13.27;5.50;;;3.10;99.90;;;;;;5001245;28;20025;-78
2022/03/30 02:31:18;;;;;;;9.63;3.75;;;3.10;99.90;;;;;;5001488;28;20579;-78
2022/03/30 02:33:44;;;;;;;9.98;4.53;;;3.10;99.90;;;;;;4983927;28;20103;-78
2022/03/30 02:36:10;;;;;;;10.85;5.43;;;3.10;99.90;;;;;;4978108;28;20124;-78
2022/03/30 02:38:35;;;;;;;10.90;4.55;;;3.00;99.90;;;;;;5000318;28;20143;-79
2022/03/30 02:41:03;;;;;;;10.15;4.28;;;3.10;99.90;;;;;;5000564;28;20044;-78
2022/03/30 02:43:28;;;;;;;17.85;6.35;;;3.10;99.90;;;;;;5016217;28;20046;-78
2022/03/30 02:45:54;;;;;;;11.75;4.65;;;3.10;99.90;;;;;;5017837;28;20040;-78
2022/03/30 02:48:22;;;;;;;10.90;4.93;;;3.00;99.90;;;;;;4984017;28;20057;-78
2022/03/30 02:50:51;;;;;;;8.45;3.35;;;2.90;99.90;;;;;;4984034;28;20029;-81
2022/03/30 02:53:17;;;;;;;9.15;3.60;;;2.90;99.90;;;;;;4998793;28;20600;-79
2022/03/30 02:55:43;;;;;;;12.68;4.70;;;3.00;99.90;;;;;;4995781;28;20034;-78
2022/03/30 02:58:10;;;;;;;10.80;4.00;;;3.00;99.90;;;;;;4981717;28;20409;-78
2022/03/30 03:00:37;;;;;;;9.05;4.25;;;2.90;99.90;;;;;;4988466;28;20049;-78
2022/03/30 03:03:03;;;;;;;9.50;4.47;;;2.90;99.90;;;;;;5020809;28;20049;-78
2022/03/30 03:05:32;;;;;;;9.13;4.45;;;2.90;99.90;;;;;;4998251;28;20095;-77
2022/03/30 03:08:02;;;;;;;13.63;5.18;;;2.90;99.90;;;;;;5004898;28;20029;-78
2022/03/30 03:10:28;;;;;;;11.75;5.22;;;2.80;99.90;;;;;;5021432;28;20063;-79
2022/03/30 03:12:54;;;;;;;10.50;3.90;;;2.80;99.90;;;;;;4981105;28;20246;-79
2022/03/30 03:15:22;;;;;;;14.35;4.40;;;2.80;99.90;;;;;;5003859;28;20033;-78
2022/03/30 03:17:47;;;;;;;12.93;6.25;;;2.80;99.90;;;;;;4981381;28;20033;-78
2022/03/30 03:20:13;;;;;;;13.57;6.30;;;2.80;99.90;;;;;;5010511;28;20082;-78
2022/03/30 03:22:40;;;;;;;11.30;6.15;;;2.70;99.90;;;;;;5003219;28;20071;-78
2022/03/30 03:25:07;;;;;;;14.52;5.70;;;2.70;99.90;;;;;;4981868;28;20043;-78
2022/03/30 03:27:33;;;;;;;10.85;4.82;;;2.70;99.90;;;;;;4981303;28;20049;-78
2022/03/30 03:29:58;;;;;;;12.07;5.43;;;2.70;99.90;;;;;;4987504;28;20069;-78
2022/03/30 03:32:24;;;;;;;12.35;6.20;;;2.70;99.90;;;;;;5004423;28;20025;-78
2022/03/30 03:34:50;;;;;;;10.75;4.40;;;2.70;99.90;;;;;;5004880;28;20045;-77
2022/03/30 03:37:15;;;;;;;13.27;5.32;;;2.70;99.90;;;;;;5020216;28;20040;-78
2022/03/30 03:39:42;;;;;;;8.52;4.20;;;2.60;99.90;;;;;;5003467;28;20033;-78
2022/03/30 03:42:08;;;;;;;12.80;4.78;;;2.60;99.90;;;;;;4986168;28;20385;-78
2022/03/30 03:44:33;;;;;;;15.38;5.72;;;2.60;99.90;;;;;;4986928;28;20497;-78
2022/03/30 03:46:59;;;;;;;16.73;5.65;;;2.60;99.90;;;;;;4987891;28;20029;-78
2022/03/30 03:49:25;;;;;;;11.23;5.35;;;2.50;99.90;;;;;;5021885;28;20026;-79
2022/03/30 03:51:50;;;;;;;10.98;4.63;;;2.50;99.90;;;;;;5010048;28;20455;-78
2022/03/30 03:54:16;;;;;;;10.75;4.95;;;2.50;99.90;;;;;;5003361;28;20649;-80
2022/03/30 03:56:42;;;;;;;12.00;5.50;;;2.50;99.90;;;;;;5019765;28;20367;-78
2022/03/30 03:59:07;;;;;;;13.65;4.60;;;2.50;99.90;;;;;;5003603;28;20021;-79
2022/03/30 04:01:34;;;;;;;10.98;4.25;;;2.40;99.90;;;;;;5002956;28;20036;-78
2022/03/30 04:03:59;;;;;;;10.60;4.20;;;2.40;99.90;;;;;;4998230;28;20498;-77
2022/03/30 04:06:25;;;;;;;9.75;4.35;;;2.30;99.90;;;;;;5002664;28;20033;-77
2022/03/30 04:08:51;;;;;;;7.15;3.42;;;2.30;99.90;;;;;;5019774;28;20037;-78
2022/03/30 04:11:16;;;;;;;8.38;3.15;;;2.30;99.90;;;;;;5019838;28;20033;-78
2022/03/30 04:13:42;;;;;;;13.20;3.70;;;2.30;99.90;;;;;;5002897;28;20663;-78
2022/03/30 04:16:08;;;;;;;7.63;2.83;;;2.20;99.90;;;;;;4997166;28;20026;-77
2022/03/30 04:18:33;;;;;;;9.80;3.33;;;2.20;99.90;;;;;;5013648;28;20046;-78
2022/03/30 04:20:59;;;;;;;9.77;4.03;;;2.10;99.90;;;;;;5002257;28;20368;-78
2022/03/30 04:23:25;;;;;;;9.45;3.53;;;2.10;99.90;;;;;;4986035;28;20041;-78
2022/03/30 04:25:50;;;;;;;9.73;3.80;;;2.10;99.90;;;;;;4981621;28;20044;-78
2022/03/30 04:28:17;;;;;;;8.40;3.40;;;2.10;99.90;;;;;;4985394;28;20043;-78
2022/03/30 04:30:43;;;;;;;7.38;3.13;;;2.20;99.90;;;;;;5017421;28;20481;-78
2022/03/30 04:33:12;;;;;;;8.18;3.75;;;2.10;99.90;;;;;;4997834;28;20110;-78
2022/03/30 04:35:37;;;;;;;7.72;3.10;;;2.10;99.90;;;;;;5009151;28;20041;-78
2022/03/30 04:38:03;;;;;;;6.80;3.10;;;2.10;99.90;;;;;;5002506;28;20107;-78
2022/03/30 04:40:29;;;;;;;7.13;2.75;;;2.10;99.90;;;;;;4996373;28;20390;-78
2022/03/30 04:42:55;;;;;;;6.38;2.67;;;2.10;99.90;;;;;;4985735;28;20037;-78
2022/03/30 04:45:21;;;;;;;8.93;2.90;;;2.00;99.90;;;;;;4997915;28;20032;-79
2022/03/30 04:47:48;;;;;;;10.48;3.35;;;2.00;99.90;;;;;;4996647;28;20038;-78
2022/03/30 04:50:14;;;;;;;7.13;3.55;;;2.00;99.90;;;;;;4996086;28;20036;-78
2022/03/30 04:52:41;;;;;;;12.18;3.90;;;2.00;99.90;;;;;;4985063;28;20057;-79
2022/03/30 04:55:08;;;;;;;8.90;3.40;;;2.00;99.90;;;;;;4996865;28;20044;-80
2022/03/30 04:57:34;;;;;;;10.90;4.70;;;1.90;99.90;;;;;;4997566;28;20426;-78
2022/03/30 05:00:00;;;;;;;8.65;3.65;;;1.90;99.90;;;;;;5020547;28;20076;-79
2022/03/30 05:02:26;;;;;;;6.70;3.88;;;1.90;99.90;;;;;;4994443;28;20588;-78
2022/03/30 05:04:52;;;;;;;8.60;3.45;;;1.80;99.90;;;;;;4987132;28;20156;-79
2022/03/30 05:07:18;;;;;;;7.78;3.75;;;1.80;99.90;;;;;;4978034;28;20029;-79
2022/03/30 05:09:44;;;;;;;9.25;4.43;;;1.80;99.90;;;;;;5002492;28;20655;-78
2022/03/30 05:12:10;;;;;;;11.60;3.55;;;1.70;99.90;;;;;;5013205;28;20069;-79
2022/03/30 05:14:36;;;;;;;10.70;3.97;;;1.70;99.90;;;;;;4984372;28;20648;-78
2022/03/30 05:17:02;;;;;;;9.43;3.97;;;1.80;99.90;;;;;;5001855;28;20037;-78
2022/03/30 05:19:28;;;;;;;8.98;3.17;;;1.70;99.90;;;;;;5014762;28;20386;-78
2022/03/30 05:21:54;;;;;;;8.90;3.05;;;1.80;99.90;;;;;;5000901;28;20049;-79
2022/03/30 05:24:19;;;;;;;10.15;3.80;;;1.70;99.90;;;;;;5017082;28;20116;-79
2022/03/30 05:26:45;;;;;;;10.18;3.25;;;1.70;99.90;;;;;;5000909;28;20650;-78
2022/03/30 05:29:11;;;;;;;8.90;3.78;;;1.60;99.90;;;;;;5002009;28;20033;-78
2022/03/30 05:31:37;;;;;;;8.65;4.00;;;1.60;99.90;;;;;;5001285;28;20045;-79
2022/03/30 05:34:03;;;;;;;11.35;3.97;;;1.70;99.90;;;;;;5019916;28;20125;-78
2022/03/30 05:36:30;;;;;;;9.75;3.55;;;1.60;99.90;;;;;;4983468;28;20030;-78
2022/03/30 05:38:55;;;;;;;8.88;4.22;;;1.60;99.90;;;;;;4999460;28;20241;-80
2022/03/30 05:41:21;;;;;;;9.75;4.00;;;1.60;99.90;;;;;;4993920;28;20029;-78
2022/03/30 05:43:46;;;;;;;10.88;3.78;;;1.60;99.90;;;;;;4999939;28;20100;-79
2022/03/30 05:46:12;;;;;;;11.32;4.32;;;1.50;99.90;;;;;;4971810;28;20722;-78
2022/03/30 05:48:38;;;;;;;11.23;3.42;;;1.60;99.90;;;;;;4997922;28;20139;-79
2022/03/30 05:51:04;;;;;;;12.77;4.43;;;1.60;99.90;;;;;;4992841;28;20108;-79
2022/03/30 05:53:30;;;;;;;9.85;3.38;;;1.60;99.90;;;;;;4975210;28;20547;-78
2022/03/30 05:55:56;;;;;;;9.52;3.65;;;1.70;99.90;;;;;;4981271;28;20630;-78
2022/03/30 05:58:21;;;;;;;13.65;5.18;;;1.60;99.90;;;;;;4980960;28;20553;-77
2022/03/30 06:00:48;;;;;;;10.68;4.03;;;1.60;99.90;;;;;;4977140;28;20546;-78
2022/03/30 06:03:14;;;;;;;10.05;3.88;;;1.60;99.90;;;;;;4991953;28;20367;-77
2022/03/30 06:05:40;;;;;;;8.00;3.22;;;1.70;99.90;;;;;;4991834;28;20398;-77
2022/03/30 06:08:07;;;;;;;11.48;3.78;;;1.70;99.90;;;;;;5014749;28;20109;-78
2022/03/30 06:10:33;;;;;;;8.75;4.20;;;1.80;99.90;;;;;;4993337;28;20469;-77
2022/03/30 06:12:59;;;;;;;10.77;4.00;;;1.80;99.90;;;;;;5016725;28;20026;-78
2022/03/30 06:15:26;;;;;;;6.85;3.10;;;1.80;99.90;;;;;;4998627;28;20145;-78
2022/03/30 06:17:53;;;;;;;12.75;4.90;;;1.90;99.90;;;;;;4994080;28;20461;-77
2022/03/30 06:20:19;;;;;;;12.95;5.78;;;2.00;99.90;;;;;;5015098;28;20100;-78
2022/03/30 06:22:44;;;;;;;12.93;5.07;;;2.00;99.90;;;;;;4981145;28;20041;-77
2022/03/30 06:25:11;;;;;;;15.60;6.97;;;2.10;99.90;;;;;;5014077;28;20105;-78
2022/03/30 06:27:38;;;;;;;21.20;10.68;;;2.20;99.90;;;;;;5007578;28;20052;-77
2022/03/30 06:30:05;;;;;;;21.30;9.65;;;2.20;99.90;;;;;;5008514;28;20064;-77
2022/03/30 06:32:31;;;;;;;17.23;8.35;;;2.20;99.90;;;;;;4999823;28;20127;-77
2022/03/30 06:34:56;;;;;;;20.45;9.52;;;2.40;99.90;;;;;;4984331;28;21999;-79
2022/03/30 06:37:22;;;;;;;18.55;8.02;;;2.40;99.90;;;;;;5018388;28;20034;-77
2022/03/30 06:39:49;;;;;;;14.93;7.07;;;2.50;99.90;;;;;;5002149;28;20120;-77
2022/03/30 06:42:16;;;;;;;26.83;10.77;;;2.60;99.90;;;;;;4993707;28;20041;-78
2022/03/30 06:44:42;;;;;;;25.92;9.63;;;2.70;99.90;;;;;;5001326;28;20163;-77
2022/03/30 06:47:08;;;;;;;20.83;8.80;;;2.80;99.90;;;;;;4995276;28;20049;-78
2022/03/30 06:49:35;;;;;;;16.20;7.63;;;2.90;99.90;;;;;;5000225;28;20022;-77
2022/03/30 06:52:01;;;;;;;15.25;6.93;;;3.00;99.90;;;;;;4996112;28;20045;-78
2022/03/30 06:54:26;;;;;;;14.18;6.57;;;3.20;99.90;;;;;;5000581;28;20033;-78
2022/03/30 06:56:52;;;;;;;9.68;5.03;;;3.30;99.90;;;;;;5010871;28;20026;-77
2022/03/30 06:59:18;;;;;;;22.75;10.10;;;3.50;99.90;;;;;;4997446;28;20042;-77
2022/03/30 07:01:44;;;;;;;21.63;8.63;;;3.70;99.90;;;;;;5000463;28;20071;-78
2022/03/30 07:04:10;;;;;;;19.65;9.63;;;3.90;99.90;;;;;;4998572;28;20063;-77
2022/03/30 07:06:36;;;;;;;22.70;10.75;;;4.10;99.90;;;;;;4998536;28;20037;-78
2022/03/30 07:11:46;;;;;;;21.20;9.88;;;4.10;99.90;;;;;;5001728;28;20038;-78
2022/03/30 07:14:11;;;;;;;18.95;9.88;;;4.30;99.90;;;;;;5000869;28;20037;-78
2022/03/30 07:16:37;;;;;;;19.10;10.80;;;4.40;99.90;;;;;;5016049;28;20220;-78
2022/03/30 07:19:03;;;;;;;24.65;11.38;;;4.40;99.90;;;;;;5000853;28;20022;-78
2022/03/30 07:21:29;;;;;;;16.17;8.60;;;4.40;99.90;;;;;;4995968;28;20032;-77
2022/03/30 07:23:54;;;;;;;16.85;8.82;;;4.50;99.90;;;;;;5000601;28;20467;-78
2022/03/30 07:26:20;;;;;;;18.02;8.48;;;4.60;99.90;;;;;;5000177;28;20030;-77
2022/03/30 07:28:45;;;;;;;17.73;8.02;;;4.70;99.90;;;;;;5005027;28;20466;-77
2022/03/30 07:31:11;;;;;;;16.35;6.85;;;4.80;99.90;;;;;;4980889;28;20030;-77
2022/03/30 07:33:37;;;;;;;13.50;6.75;;;4.90;99.90;;;;;;5009914;28;20639;-78
2022/03/30 07:36:03;;;;;;;11.70;5.20;;;5.00;99.90;;;;;;4982673;28;20069;-78
2022/03/30 07:38:29;;;;;;;11.50;5.40;;;5.30;99.90;;;;;;4991937;28;20133;-78
2022/03/30 07:40:56;;;;;;;11.88;5.57;;;5.30;99.90;;;;;;4999049;28;20037;-78
2022/03/30 07:43:22;;;;;;;13.15;5.63;;;5.40;99.90;;;;;;4975838;28;20048;-78
2022/03/30 07:45:48;;;;;;;11.90;5.97;;;5.50;99.90;;;;;;4998280;28;20126;-78
2022/03/30 07:48:13;;;;;;;9.38;4.80;;;5.70;99.90;;;;;;5006236;28;20049;-77
2022/03/30 07:50:39;;;;;;;15.15;6.88;;;5.70;99.90;;;;;;4992920;28;20034;-78
2022/03/30 07:53:07;;;;;;;11.45;5.65;;;5.80;99.90;;;;;;4974070;28;20441;-78
2022/03/30 07:55:34;;;;;;;12.50;5.38;;;5.90;99.90;;;;;;4982587;28;20034;-77
2022/03/30 07:58:00;;;;;;;11.05;5.47;;;5.90;99.90;;;;;;4996532;28;20033;-78
2022/03/30 08:00:26;;;;;;;12.90;5.93;;;6.00;99.90;;;;;;4990320;28;20088;-77
2022/03/30 08:02:52;;;;;;;15.55;6.82;;;6.10;99.90;;;;;;4996352;28;21022;-77
2022/03/30 08:05:18;;;;;;;12.93;6.80;;;6.20;99.90;;;;;;5007666;28;20033;-77
2022/03/30 08:07:46;;;;;;;20.77;10.40;;;6.20;99.90;;;;;;4980783;28;20026;-77
2022/03/30 08:10:12;;;;;;;21.65;11.35;;;6.00;99.90;;;;;;4996809;28;20088;-77
2022/03/30 08:12:39;;;;;;;16.13;9.75;;;6.10;99.90;;;;;;4974901;28;20029;-78
2022/03/30 08:15:06;;;;;;;16.17;8.65;;;6.40;99.90;;;;;;4990211;28;20046;-77
2022/03/30 08:17:31;;;;;;;17.63;10.32;;;6.60;99.90;;;;;;4969267;28;20842;-77
2022/03/30 08:19:59;;;;;;;23.60;11.63;;;6.40;99.90;;;;;;4979543;28;20121;-78
2022/03/30 08:22:25;;;;;;;25.00;10.88;;;6.30;99.90;;;;;;5001305;28;20069;-77
2022/03/30 08:24:52;;;;;;;22.13;9.57;;;6.60;99.90;;;;;;4996480;28;20589;-77
2022/03/30 08:27:21;;;;;;;17.30;8.68;;;6.80;99.90;;;;;;5011694;28;20108;-77
2022/03/30 08:29:47;;;;;;;15.77;6.93;;;7.00;99.90;;;;;;4988994;28;20038;-77
2022/03/30 08:32:15;;;;;;;12.05;7.00;;;7.30;99.90;;;;;;4997380;28;20576;-77
2022/03/30 08:34:42;;;;;;;14.50;6.15;;;7.50;99.90;;;;;;5012173;28;20092;-78
2022/03/30 08:37:07;;;;;;;17.17;7.95;;;7.70;99.90;;;;;;4997330;28;20030;-78
2022/03/30 08:39:35;;;;;;;17.40;8.48;;;7.60;99.90;;;;;;4974782;28;20048;-78
2022/03/30 08:42:03;;;;;;;17.60;7.55;;;7.60;99.90;;;;;;5014227;28;20621;-78
2022/03/30 08:44:29;;;;;;;20.33;10.23;;;7.80;99.90;;;;;;4998217;28;20042;-78
2022/03/30 08:46:55;;;;;;;25.67;10.80;;;7.80;99.90;;;;;;4995283;28;20029;-79
2022/03/30 08:49:20;;;;;;;25.70;12.57;;;7.60;99.90;;;;;;4996913;28;20038;-80
2022/03/30 08:51:50;;;;;;;24.15;11.02;;;7.70;99.90;;;;;;5001323;28;20345;-80
2022/03/30 08:54:18;;;;;;;21.70;10.52;;;7.80;99.90;;;;;;4990495;28;20492;-80
2022/03/30 08:56:45;;;;;;;25.63;11.30;;;7.80;99.90;;;;;;4997026;28;20126;-80
2022/03/30 08:59:15;;;;;;;15.75;8.15;;;8.10;99.90;;;;;;4989247;28;20064;-79
2022/03/30 09:01:41;;;;;;;12.57;6.78;;;8.50;99.90;;;;;;5001147;28;20029;-79
2022/03/30 09:04:11;;;;;;;17.08;6.93;;;8.80;99.90;;;;;;4995368;28;20045;-78
2022/03/30 09:06:47;;;;;;;14.20;5.88;;;8.80;99.90;;;;;;4972755;28;20470;-79
2022/03/30 09:09:25;;;;;;;16.77;6.80;;;8.60;99.90;;;;;;4968483;28;20700;-79
2022/03/30 09:11:55;;;;;;;14.57;5.65;;;8.60;99.90;;;;;;4990546;28;20026;-79
2022/03/30 09:14:23;;;;;;;11.43;5.43;;;9.00;99.90;;;;;;4993528;28;20041;-79
2022/03/30 09:16:51;;;;;;;12.27;5.43;;;9.10;99.90;;;;;;5006027;28;20049;-80
2022/03/30 09:19:19;;;;;;;9.38;5.15;;;9.30;99.90;;;;;;4995369;28;20399;-80
2022/03/30 09:21:50;;;;;;;10.35;4.45;;;9.50;99.90;;;;;;4995339;28;20037;-80
2022/03/30 09:24:21;;;;;;;8.15;4.30;;;9.90;99.90;;;;;;4994239;28;20049;-80
2022/03/30 09:26:50;;;;;;;12.15;4.85;;;10.10;99.90;;;;;;5010938;28;20044;-79
2022/03/30 09:29:23;;;;;;;15.88;7.43;;;9.80;99.90;;;;;;5000563;28;20042;-79
2022/03/30 09:31:49;;;;;;;12.07;6.35;;;9.30;99.90;;;;;;4977949;28;20037;-79
2022/03/30 09:34:16;;;;;;;8.18;4.57;;;9.70;99.90;;;;;;4961658;28;20042;-78
2022/03/30 09:36:43;;;;;;;9.05;4.28;;;10.20;99.90;;;;;;4980729;28;20034;-79
2022/03/30 09:39:36;;;;;;;8.63;3.90;;;10.30;99.90;;;;;;4979396;28;20076;-78
2022/03/30 09:42:05;;;;;;;5.32;3.22;;;10.60;99.90;;;;;;4996626;28;20042;-79
2022/03/30 09:44:47;;;;;;;9.25;5.00;;;10.60;99.90;;;;;;5009733;28;20041;-79
2022/03/30 09:47:13;;;;;;;8.73;4.00;;;10.10;99.90;;;;;;4987829;28;20113;-79
2022/03/30 09:49:42;;;;;;;7.72;4.15;;;10.10;99.90;;;;;;4994678;28;20100;-78
2022/03/30 09:52:16;;;;;;;8.40;4.10;;;10.30;99.90;;;;;;5007802;28;20053;-79
2022/03/30 09:54:49;;;;;;;9.27;5.35;;;10.20;99.90;;;;;;4988164;28;20052;-79
2022/03/30 09:57:26;;;;;;;8.70;4.85;;;10.10;99.90;;;;;;4994648;28;20049;-79
2022/03/30 10:00:09;;;;;;;6.50;3.65;;;10.30;99.90;;;;;;4999642;28;20055;-79
2022/03/30 10:02:47;;;;;;;7.05;2.97;;;10.60;99.90;;;;;;5015483;28;20561;-79
2022/03/30 10:05:16;;;;;;;6.20;3.17;;;10.60;99.90;;;;;;4999066;28;20111;-79
2022/03/30 10:07:42;;;;;;;5.78;3.30;;;10.80;99.90;;;;;;5015315;28;20033;-79
2022/03/30 10:10:10;;;;;;;6.47;3.75;;;11.00;99.90;;;;;;4998203;28;20052;-80
2022/03/30 10:12:37;;;;;;;9.45;5.82;;;11.10;99.90;;;;;;4998471;28;20087;-79
2022/03/30 10:15:04;;;;;;;10.68;5.70;;;10.40;99.90;;;;;;4999031;28;20033;-79
2022/03/30 10:17:29;;;;;;;6.47;3.65;;;10.70;99.90;;;;;;4994841;28;20028;-79
2022/03/30 10:19:58;;;;;;;6.75;4.20;;;11.00;99.90;;;;;;4997907;28;20033;-80
2022/03/30 10:23:00;;;;;;;6.25;3.97;;;11.30;99.90;;;;;;4997601;28;20442;-80
2022/03/30 10:25:43;;;;;;;6.88;3.03;;;11.50;99.90;;;;;;4991234;28;20525;-80
2022/03/30 10:28:25;;;;;;;7.78;4.57;;;11.40;99.90;;;;;;4975937;28;20082;-79
2022/03/30 10:30:53;;;;;;;6.07;3.97;;;11.40;99.90;;;;;;4976547;28;20075;-79
2022/03/30 10:33:30;;;;;;;4.75;2.53;;;11.80;99.90;;;;;;5014186;28;20021;-78
2022/03/30 10:35:56;;;;;;;9.40;5.13;;;11.80;99.90;;;;;;4997000;28;20044;-78
2022/03/30 10:38:22;;;;;;;8.63;5.00;;;11.10;99.90;;;;;;5015030;28;20033;-79
2022/03/30 10:41:04;;;;;;;9.93;4.68;;;11.10;99.90;;;;;;5013044;28;20029;-78
2022/03/30 10:43:30;;;;;;;7.57;3.65;;;10.90;99.90;;;;;;4990517;28;20668;-79
2022/03/30 10:46:02;;;;;;;9.32;4.38;;;11.40;99.90;;;;;;5013961;28;20029;-79
2022/03/30 10:48:34;;;;;;;12.32;5.88;;;11.40;99.90;;;;;;5014128;28;20635;-80
2022/03/30 10:51:15;;;;;;;7.70;4.88;;;11.10;99.90;;;;;;4976752;28;20029;-80
2022/03/30 10:53:41;;;;;;;7.07;2.97;;;11.40;99.90;;;;;;4999370;28;20117;-80
2022/03/30 10:56:07;;;;;;;4.88;2.17;;;12.10;99.90;;;;;;4992773;28;20267;-80
2022/03/30 10:58:34;;;;;;;8.15;3.78;;;12.30;99.90;;;;;;4981236;28;20291;-80
2022/03/30 11:01:21;;;;;;;6.03;3.55;;;12.40;99.90;;;;;;5015076;28;20036;-79
2022/03/30 11:04:13;;;;;;;5.65;3.13;;;12.80;99.90;;;;;;4996303;28;20135;-80
2022/03/30 11:06:43;;;;;;;6.75;3.40;;;12.80;99.90;;;;;;4974765;28;20152;-80
2022/03/30 11:09:19;;;;;;;9.57;5.32;;;12.40;99.90;;;;;;4996317;28;20053;-80
2022/03/30 11:11:55;;;;;;;8.07;4.05;;;12.30;99.90;;;;;;4997025;28;20082;-80
2022/03/30 11:14:34;;;;;;;8.25;4.00;;;12.60;99.90;;;;;;4987343;28;20128;-80
2022/03/30 11:17:31;;;;;;;10.40;5.77;;;12.20;99.90;;;;;;4998201;28;20044;-79
2022/03/30 11:19:57;;;;;;;7.53;4.90;;;11.00;99.90;;;;;;5019471;28;20315;-78
2022/03/30 11:22:24;;;;;;;9.45;4.07;;;11.10;99.90;;;;;;4997450;28;20484;-80
2022/03/30 11:25:13;;;;;;;8.95;4.88;;;10.90;99.90;;;;;;4996230;28;20516;-79
2022/03/30 11:27:39;;;;;;;9.98;4.97;;;11.20;99.90;;;;;;5002375;28;20033;-78
2022/03/30 11:30:16;;;;;;;5.45;3.72;;;11.10;99.90;;;;;;5019110;28;20029;-79
2022/03/30 11:32:50;;;;;;;7.95;3.97;;;11.30;99.90;;;;;;4996986;28;20029;-79
2022/03/30 11:35:17;;;;;;;6.63;2.72;;;11.40;99.90;;;;;;5018714;28;20037;-79
2022/03/30 11:37:49;;;;;;;6.25;3.10;;;11.40;99.90;;;;;;4995540;28;21016;-78
2022/03/30 11:40:22;;;;;;;3.78;2.00;;;11.50;99.90;;;;;;5018641;28;20370;-79
2022/03/30 11:42:54;;;;;;;8.23;3.72;;;12.00;99.90;;;;;;5001156;28;20079;-79
2022/03/30 11:45:24;;;;;;;5.85;4.05;;;11.30;99.90;;;;;;5015588;28;20117;-79
2022/03/30 11:47:49;;;;;;;;;;;10.70;99.90;;;;;;5018002;28;20033;-79
2022/03/30 11:50:17;;;;;;;4.45;2.70;;;10.60;99.90;;;;;;4982333;28;19920;-79
2022/03/30 11:52:52;;;;;;;4.05;2.20;;;11.10;99.90;;;;;;5007617;28;20533;-79
2022/03/30 11:55:17;;;;;;;8.57;3.40;;;11.10;99.90;;;;;;4996008;28;20169;-80
2022/03/30 11:57:43;;;;;;;5.65;2.80;;;11.30;99.90;;;;;;4996431;28;20445;-80
2022/03/30 12:00:10;;;;;;;6.93;4.10;;;11.30;99.90;;;;;;4976560;28;20026;-80
2022/03/30 12:02:42;;;;;;;6.60;4.10;;;10.70;99.90;;;;;;4991359;28;20049;-80
2022/03/30 12:05:09;;;;;;;7.25;3.70;;;10.70;99.90;;;;;;4997308;28;20026;-80
2022/03/30 12:07:36;;;;;;;7.40;3.35;;;11.10;99.90;;;;;;4974074;28;20037;-79
2022/03/30 12:10:07;;;;;;;6.63;3.15;;;10.80;99.90;;;;;;4980590;28;20053;-80
2022/03/30 12:12:37;;;;;;;3.83;2.08;;;11.00;99.90;;;;;;4990936;28;20037;-80
2022/03/30 12:15:08;;;;;;;5.20;3.10;;;11.30;99.90;;;;;;4991058;28;20431;-78
2022/03/30 12:17:36;;;;;;;5.05;2.47;;;11.30;99.90;;;;;;4975685;28;20038;-80
2022/03/30 12:20:07;;;;;;;4.93;2.35;;;11.30;99.90;;;;;;4990915;28;20029;-80
2022/03/30 12:22:34;;;;;;;7.53;3.10;;;11.40;99.90;;;;;;4996806;28;20109;-79
2022/03/30 12:25:00;;;;;;;6.18;2.97;;;11.10;99.90;;;;;;4996879;28;20382;-79
2022/03/30 12:27:26;;;;;;;6.05;3.00;;;10.90;99.90;;;;;;4974813;28;20042;-79
2022/03/30 12:29:56;;;;;;;3.88;1.63;;;11.00;99.90;;;;;;4999724;28;20038;-79
2022/03/30 12:32:26;;;;;;;6.15;3.03;;;11.60;99.90;;;;;;4990504;28;20045;-80
2022/03/30 12:35:16;;;;;;;5.47;2.55;;;11.10;99.90;;;;;;4992558;28;20038;-78
2022/03/30 12:37:45;;;;;;;3.78;1.67;;;11.10;99.90;;;;;;4990205;28;20129;-78
2022/03/30 12:40:15;;;;;;;1.95;1.17;;;11.90;99.90;;;;;;4997054;28;20041;-79
2022/03/30 12:42:44;;;;;;;4.25;1.35;;;12.10;99.90;;;;;;5013696;28;20046;-78
2022/03/30 12:45:14;;;;;;;3.25;1.67;;;12.20;99.90;;;;;;4999041;28;20490;-79
2022/03/30 12:47:51;;;;;;;6.57;3.35;;;12.10;99.90;;;;;;4991585;28;20044;-81
2022/03/30 12:50:23;;;;;;;3.15;1.48;;;11.60;99.90;;;;;;4997846;28;20045;-79
2022/03/30 12:52:51;;;;;;;3.00;1.30;;;12.50;99.90;;;;;;4998838;28;20764;-79
2022/03/30 12:55:18;;;;;;;2.22;0.98;;;12.70;99.90;;;;;;4991374;28;20132;-79
2022/03/30 12:58:01;;;;;;;2.95;1.38;;;13.10;99.90;;;;;;4992247;28;20034;-82